sensor_id;sensor_type;location;lat;lon;timestamp;P1;durP1;ratioP1;P2;durP2;ratioP2
37151;SDS011;23046;50.112;8.952;2023-08-08T00:00:04;1.40;;;1.30;;
37151;SDS011;23046;50.112;8.952;2023-08-08T00:00:15;1.33;;;1.23;;
37151;SDS011;23046;50.112;8.952;2023-08-08T00:00:25;1.40;;;1.30;;
37151;SDS011;23046;50.112;8.952;2023-08-08T00:00:36;1.35;;;1.25;;
37151;SDS011;23046;50.112;8.952;2023-08-08T00:00:48;1.40;;;1.27;;
37151;SDS011;23046;50.112;8.952;2023-08-08T00:00:58;1.75;;;1.13;;
37151;SDS011;23046;50.112;8.952;2023-08-08T00:01:09;1.65;;;1.20;;
37151;SDS011;23046;50.112;8.952;2023-08-08T00:01:19;1.60;;;1.20;;
37151;SDS011;23046;50.112;8.952;2023-08-08T00:01:29;1.40;;;1.30;;
37151;SDS011;23046;50.112;8.952;2023-08-08T00:01:40;2.33;;;1.20;;
37151;SDS011;23046;50.112;8.952;2023-08-08T00:01:52;2.53;;;1.20;;
37151;SDS011;23046;50.112;8.952;2023-08-08T00:02:03;1.33;;;1.10;;
37151;SDS011;23046;50.112;8.952;2023-08-08T00:02:13;1.33;;;1.20;;
37151;SDS011;23046;50.112;8.952;2023-08-08T00:02:23;1.40;;;1.30;;
37151;SDS011;23046;50.112;8.952;2023-08-08T00:02:34;1.33;;;1.23;;
37151;SDS011;23046;50.112;8.952;2023-08-08T00:02:44;1.30;;;1.20;;
37151;SDS011;23046;50.112;8.952;2023-08-08T00:02:54;1.33;;;1.23;;
37151;SDS011;23046;50.112;8.952;2023-08-08T00:03:05;1.50;;;1.40;;
37151;SDS011;23046;50.112;8.952;2023-08-08T00:03:15;1.50;;;1.40;;
37151;SDS011;23046;50.112;8.952;2023-08-08T00:03:25;1.50;;;1.40;;
37151;SDS011;23046;50.112;8.952;2023-08-08T00:03:36;1.92;;;1.25;;
37151;SDS011;23046;50.112;8.952;2023-08-08T00:03:46;2.33;;;1.23;;
37151;SDS011;23046;50.112;8.952;2023-08-08T00:03:56;5.40;;;1.37;;
37151;SDS011;23046;50.112;8.952;2023-08-08T00:04:06;5.50;;;1.50;;
37151;SDS011;23046;50.112;8.952;2023-08-08T00:04:17;4.77;;;1.37;;
37151;SDS011;23046;50.112;8.952;2023-08-08T00:04:27;1.50;;;1.23;;
37151;SDS011;23046;50.112;8.952;2023-08-08T00:04:37;1.10;;;1.10;;
37151;SDS011;23046;50.112;8.952;2023-08-08T00:04:50;1.30;;;1.20;;
37151;SDS011;23046;50.112;8.952;2023-08-08T00:05:01;1.45;;;1.35;;
37151;SDS011;23046;50.112;8.952;2023-08-08T00:05:11;1.67;;;1.53;;
37151;SDS011;23046;50.112;8.952;2023-08-08T00:05:21;2.40;;;1.60;;
37151;SDS011;23046;50.112;8.952;2023-08-08T00:05:31;2.27;;;1.53;;
37151;SDS011;23046;50.112;8.952;2023-08-08T00:05:42;2.30;;;1.45;;
37151;SDS011;23046;50.112;8.952;2023-08-08T00:05:52;2.43;;;1.30;;
37151;SDS011;23046;50.112;8.952;2023-08-08T00:06:02;3.60;;;1.30;;
37151;SDS011;23046;50.112;8.952;2023-08-08T00:06:13;4.07;;;1.20;;
37151;SDS011;23046;50.112;8.952;2023-08-08T00:06:23;3.03;;;1.20;;
37151;SDS011;23046;50.112;8.952;2023-08-08T00:06:33;1.77;;;1.20;;
37151;SDS011;23046;50.112;8.952;2023-08-08T00:06:43;1.40;;;1.30;;
37151;SDS011;23046;50.112;8.952;2023-08-08T00:06:53;1.40;;;1.30;;
37151;SDS011;23046;50.112;8.952;2023-08-08T00:07:04;1.58;;;1.40;;
37151;SDS011;23046;50.112;8.952;2023-08-08T00:07:14;1.60;;;1.27;;
37151;SDS011;23046;50.112;8.952;2023-08-08T00:07:24;2.60;;;1.30;;
37151;SDS011;23046;50.112;8.952;2023-08-08T00:07:35;2.90;;;1.23;;
37151;SDS011;23046;50.112;8.952;2023-08-08T00:07:45;2.60;;;1.20;;
37151;SDS011;23046;50.112;8.952;2023-08-08T00:07:55;1.60;;;1.10;;
37151;SDS011;23046;50.112;8.952;2023-08-08T00:08:06;1.00;;;1.00;;
37151;SDS011;23046;50.112;8.952;2023-08-08T00:08:16;0.90;;;0.90;;
37151;SDS011;23046;50.112;8.952;2023-08-08T00:08:27;1.00;;;1.00;;
37151;SDS011;23046;50.112;8.952;2023-08-08T00:08:37;0.98;;;0.98;;
37151;SDS011;23046;50.112;8.952;2023-08-08T00:08:47;1.17;;;1.17;;
37151;SDS011;23046;50.112;8.952;2023-08-08T00:08:57;1.50;;;1.40;;
37151;SDS011;23046;50.112;8.952;2023-08-08T00:09:08;1.53;;;1.43;;
37151;SDS011;23046;50.112;8.952;2023-08-08T00:09:18;2.20;;;1.40;;
37151;SDS011;23046;50.112;8.952;2023-08-08T00:09:28;1.70;;;1.17;;
37151;SDS011;23046;50.112;8.952;2023-08-08T00:09:38;2.47;;;1.20;;
37151;SDS011;23046;50.112;8.952;2023-08-08T00:09:49;2.40;;;1.20;;
37151;SDS011;23046;50.112;8.952;2023-08-08T00:09:59;2.40;;;1.20;;
37151;SDS011;23046;50.112;8.952;2023-08-08T00:10:09;1.90;;;1.10;;
37151;SDS011;23046;50.112;8.952;2023-08-08T00:10:19;1.20;;;1.10;;
37151;SDS011;23046;50.112;8.952;2023-08-08T00:10:30;1.40;;;1.00;;
37151;SDS011;23046;50.112;8.952;2023-08-08T00:10:40;1.30;;;1.10;;
37151;SDS011;23046;50.112;8.952;2023-08-08T00:10:50;2.03;;;1.10;;
37151;SDS011;23046;50.112;8.952;2023-08-08T00:11:00;1.60;;;1.13;;
37151;SDS011;23046;50.112;8.952;2023-08-08T00:11:11;1.70;;;1.10;;
37151;SDS011;23046;50.112;8.952;2023-08-08T00:11:21;1.50;;;1.40;;
37151;SDS011;23046;50.112;8.952;2023-08-08T00:11:31;1.50;;;1.40;;
37151;SDS011;23046;50.112;8.952;2023-08-08T00:11:42;1.50;;;1.40;;
37151;SDS011;23046;50.112;8.952;2023-08-08T00:11:52;1.30;;;1.20;;
37151;SDS011;23046;50.112;8.952;2023-08-08T00:12:02;1.42;;;1.30;;
37151;SDS011;23046;50.112;8.952;2023-08-08T00:12:13;1.40;;;1.30;;
37151;SDS011;23046;50.112;8.952;2023-08-08T00:12:23;1.40;;;1.27;;
37151;SDS011;23046;50.112;8.952;2023-08-08T00:12:33;1.20;;;1.10;;
37151;SDS011;23046;50.112;8.952;2023-08-08T00:12:44;1.40;;;1.17;;
37151;SDS011;23046;50.112;8.952;2023-08-08T00:12:54;1.20;;;1.10;;
37151;SDS011;23046;50.112;8.952;2023-08-08T00:13:04;1.20;;;1.10;;
37151;SDS011;23046;50.112;8.952;2023-08-08T00:13:14;2.90;;;1.03;;
37151;SDS011;23046;50.112;8.952;2023-08-08T00:13:25;2.83;;;1.07;;
37151;SDS011;23046;50.112;8.952;2023-08-08T00:13:35;3.03;;;1.00;;
37151;SDS011;23046;50.112;8.952;2023-08-08T00:13:46;1.10;;;1.00;;
37151;SDS011;23046;50.112;8.952;2023-08-08T00:13:56;1.10;;;1.00;;
37151;SDS011;23046;50.112;8.952;2023-08-08T00:14:06;1.10;;;1.05;;
37151;SDS011;23046;50.112;8.952;2023-08-08T00:14:17;1.00;;;1.00;;
37151;SDS011;23046;50.112;8.952;2023-08-08T00:14:27;1.40;;;1.17;;
37151;SDS011;23046;50.112;8.952;2023-08-08T00:14:37;1.40;;;1.20;;
37151;SDS011;23046;50.112;8.952;2023-08-08T00:14:47;1.40;;;1.20;;
37151;SDS011;23046;50.112;8.952;2023-08-08T00:14:58;1.30;;;1.20;;
37151;SDS011;23046;50.112;8.952;2023-08-08T00:15:08;1.30;;;1.20;;
37151;SDS011;23046;50.112;8.952;2023-08-08T00:15:18;1.35;;;1.25;;
37151;SDS011;23046;50.112;8.952;2023-08-08T00:15:29;1.27;;;1.17;;
37151;SDS011;23046;50.112;8.952;2023-08-08T00:15:39;1.23;;;1.13;;
37151;SDS011;23046;50.112;8.952;2023-08-08T00:15:49;1.20;;;1.10;;
37151;SDS011;23046;50.112;8.952;2023-08-08T00:15:59;1.30;;;1.20;;
37151;SDS011;23046;50.112;8.952;2023-08-08T00:16:10;1.33;;;1.23;;
37151;SDS011;23046;50.112;8.952;2023-08-08T00:16:20;1.40;;;1.30;;
37151;SDS011;23046;50.112;8.952;2023-08-08T00:16:30;1.40;;;1.20;;
37151;SDS011;23046;50.112;8.952;2023-08-08T00:16:41;1.23;;;1.10;;
37151;SDS011;23046;50.112;8.952;2023-08-08T00:16:51;1.33;;;1.20;;
37151;SDS011;23046;50.112;8.952;2023-08-08T00:17:01;1.27;;;1.17;;
37151;SDS011;23046;50.112;8.952;2023-08-08T00:17:11;1.40;;;1.10;;
37151;SDS011;23046;50.112;8.952;2023-08-08T00:17:22;1.53;;;1.13;;
37151;SDS011;23046;50.112;8.952;2023-08-08T00:17:32;1.60;;;1.20;;
37151;SDS011;23046;50.112;8.952;2023-08-08T00:17:42;1.45;;;1.20;;
37151;SDS011;23046;50.112;8.952;2023-08-08T00:17:53;1.33;;;1.13;;
37151;SDS011;23046;50.112;8.952;2023-08-08T00:18:03;1.57;;;1.20;;
37151;SDS011;23046;50.112;8.952;2023-08-08T00:18:13;1.40;;;1.27;;
37151;SDS011;23046;50.112;8.952;2023-08-08T00:18:24;1.40;;;1.30;;
37151;SDS011;23046;50.112;8.952;2023-08-08T00:18:34;1.20;;;1.20;;
37151;SDS011;23046;50.112;8.952;2023-08-08T00:18:44;1.00;;;1.00;;
37151;SDS011;23046;50.112;8.952;2023-08-08T00:18:55;1.00;;;1.00;;
37151;SDS011;23046;50.112;8.952;2023-08-08T00:19:05;1.13;;;1.07;;
37151;SDS011;23046;50.112;8.952;2023-08-08T00:19:15;1.40;;;1.30;;
37151;SDS011;23046;50.112;8.952;2023-08-08T00:19:26;1.60;;;1.50;;
37151;SDS011;23046;50.112;8.952;2023-08-08T00:19:36;1.50;;;1.40;;
37151;SDS011;23046;50.112;8.952;2023-08-08T00:19:46;1.60;;;1.23;;
37151;SDS011;23046;50.112;8.952;2023-08-08T00:19:56;1.58;;;1.10;;
37151;SDS011;23046;50.112;8.952;2023-08-08T00:20:07;1.67;;;1.10;;
37151;SDS011;23046;50.112;8.952;2023-08-08T00:20:17;1.30;;;1.20;;
37151;SDS011;23046;50.112;8.952;2023-08-08T00:20:27;1.50;;;1.38;;
37151;SDS011;23046;50.112;8.952;2023-08-08T00:20:38;1.50;;;1.37;;
37151;SDS011;23046;50.112;8.952;2023-08-08T00:20:48;1.47;;;1.30;;
37151;SDS011;23046;50.112;8.952;2023-08-08T00:20:58;1.40;;;1.10;;
37151;SDS011;23046;50.112;8.952;2023-08-08T00:21:09;1.90;;;1.10;;
37151;SDS011;23046;50.112;8.952;2023-08-08T00:21:19;2.03;;;1.10;;
37151;SDS011;23046;50.112;8.952;2023-08-08T00:21:29;2.03;;;1.10;;
37151;SDS011;23046;50.112;8.952;2023-08-08T00:21:40;1.60;;;1.20;;
37151;SDS011;23046;50.112;8.952;2023-08-08T00:21:50;1.63;;;1.40;;
37151;SDS011;23046;50.112;8.952;2023-08-08T00:22:00;1.50;;;1.40;;
37151;SDS011;23046;50.112;8.952;2023-08-08T00:22:10;1.40;;;1.30;;
37151;SDS011;23046;50.112;8.952;2023-08-08T00:22:21;1.35;;;1.25;;
37151;SDS011;23046;50.112;8.952;2023-08-08T00:22:31;1.40;;;1.30;;
37151;SDS011;23046;50.112;8.952;2023-08-08T00:22:41;1.40;;;1.30;;
37151;SDS011;23046;50.112;8.952;2023-08-08T00:22:52;1.47;;;1.23;;
37151;SDS011;23046;50.112;8.952;2023-08-08T00:23:02;1.50;;;1.23;;
37151;SDS011;23046;50.112;8.952;2023-08-08T00:23:12;1.50;;;1.20;;
37151;SDS011;23046;50.112;8.952;2023-08-08T00:23:22;1.80;;;1.20;;
37151;SDS011;23046;50.112;8.952;2023-08-08T00:23:33;1.80;;;1.20;;
37151;SDS011;23046;50.112;8.952;2023-08-08T00:23:43;1.60;;;1.20;;
37151;SDS011;23046;50.112;8.952;2023-08-08T00:23:53;1.30;;;1.20;;
37151;SDS011;23046;50.112;8.952;2023-08-08T00:24:04;1.20;;;1.10;;
37151;SDS011;23046;50.112;8.952;2023-08-08T00:24:14;1.33;;;1.10;;
37151;SDS011;23046;50.112;8.952;2023-08-08T00:24:24;1.77;;;1.27;;
37151;SDS011;23046;50.112;8.952;2023-08-08T00:24:34;1.80;;;1.40;;
37151;SDS011;23046;50.112;8.952;2023-08-08T00:24:45;2.03;;;1.40;;
37151;SDS011;23046;50.112;8.952;2023-08-08T00:24:55;2.13;;;1.30;;
37151;SDS011;23046;50.112;8.952;2023-08-08T00:25:05;2.30;;;1.20;;
37151;SDS011;23046;50.112;8.952;2023-08-08T00:25:16;1.90;;;1.27;;
37151;SDS011;23046;50.112;8.952;2023-08-08T00:25:26;1.40;;;1.30;;
37151;SDS011;23046;50.112;8.952;2023-08-08T00:25:36;1.47;;;1.37;;
37151;SDS011;23046;50.112;8.952;2023-08-08T00:25:47;1.60;;;1.30;;
37151;SDS011;23046;50.112;8.952;2023-08-08T00:25:59;1.80;;;1.20;;
37151;SDS011;23046;50.112;8.952;2023-08-08T00:26:10;1.77;;;1.30;;
37151;SDS011;23046;50.112;8.952;2023-08-08T00:26:20;1.50;;;1.20;;
37151;SDS011;23046;50.112;8.952;2023-08-08T00:26:30;1.20;;;1.10;;
37151;SDS011;23046;50.112;8.952;2023-08-08T00:26:41;1.03;;;1.03;;
37151;SDS011;23046;50.112;8.952;2023-08-08T00:26:51;1.27;;;1.17;;
37151;SDS011;23046;50.112;8.952;2023-08-08T00:27:01;1.33;;;1.23;;
37151;SDS011;23046;50.112;8.952;2023-08-08T00:27:11;1.30;;;1.20;;
37151;SDS011;23046;50.112;8.952;2023-08-08T00:27:22;1.13;;;1.03;;
37151;SDS011;23046;50.112;8.952;2023-08-08T00:27:32;1.20;;;1.08;;
37151;SDS011;23046;50.112;8.952;2023-08-08T00:27:44;1.20;;;1.10;;
37151;SDS011;23046;50.112;8.952;2023-08-08T00:27:54;1.30;;;1.20;;
37151;SDS011;23046;50.112;8.952;2023-08-08T00:28:04;1.30;;;1.20;;
37151;SDS011;23046;50.112;8.952;2023-08-08T00:28:15;1.30;;;1.20;;
37151;SDS011;23046;50.112;8.952;2023-08-08T00:28:25;1.27;;;1.17;;
37151;SDS011;23046;50.112;8.952;2023-08-08T00:28:37;1.15;;;1.13;;
37151;SDS011;23046;50.112;8.952;2023-08-08T00:28:47;1.30;;;1.20;;
37151;SDS011;23046;50.112;8.952;2023-08-08T00:28:57;1.33;;;1.20;;
37151;SDS011;23046;50.112;8.952;2023-08-08T00:29:07;1.43;;;1.30;;
37151;SDS011;23046;50.112;8.952;2023-08-08T00:29:18;1.37;;;1.23;;
37151;SDS011;23046;50.112;8.952;2023-08-08T00:29:28;1.30;;;1.20;;
37151;SDS011;23046;50.112;8.952;2023-08-08T00:29:38;1.20;;;1.10;;
37151;SDS011;23046;50.112;8.952;2023-08-08T00:29:48;1.30;;;1.20;;
37151;SDS011;23046;50.112;8.952;2023-08-08T00:30:01;1.30;;;1.20;;
37151;SDS011;23046;50.112;8.952;2023-08-08T00:30:11;1.30;;;1.20;;
37151;SDS011;23046;50.112;8.952;2023-08-08T00:30:22;1.38;;;1.13;;
37151;SDS011;23046;50.112;8.952;2023-08-08T00:30:33;1.50;;;1.10;;
37151;SDS011;23046;50.112;8.952;2023-08-08T00:30:43;1.30;;;1.02;;
37151;SDS011;23046;50.112;8.952;2023-08-08T00:30:54;1.20;;;1.00;;
37151;SDS011;23046;50.112;8.952;2023-08-08T00:31:04;1.40;;;1.20;;
37151;SDS011;23046;50.112;8.952;2023-08-08T00:31:14;1.50;;;1.30;;
37151;SDS011;23046;50.112;8.952;2023-08-08T00:31:28;4.20;;;1.42;;
37151;SDS011;23046;50.112;8.952;2023-08-08T00:31:38;4.45;;;1.40;;
37151;SDS011;23046;50.112;8.952;2023-08-08T00:31:48;4.27;;;1.40;;
37151;SDS011;23046;50.112;8.952;2023-08-08T00:31:59;1.57;;;1.23;;
37151;SDS011;23046;50.112;8.952;2023-08-08T00:32:09;1.90;;;1.40;;
37151;SDS011;23046;50.112;8.952;2023-08-08T00:32:19;1.90;;;1.30;;
37151;SDS011;23046;50.112;8.952;2023-08-08T00:32:29;1.60;;;1.30;;
37151;SDS011;23046;50.112;8.952;2023-08-08T00:32:40;1.30;;;1.17;;
37151;SDS011;23046;50.112;8.952;2023-08-08T00:32:50;1.33;;;1.20;;
37151;SDS011;23046;50.112;8.952;2023-08-08T00:33:00;1.30;;;1.20;;
37151;SDS011;23046;50.112;8.952;2023-08-08T00:33:11;1.30;;;1.20;;
37151;SDS011;23046;50.112;8.952;2023-08-08T00:33:21;1.30;;;1.20;;
37151;SDS011;23046;50.112;8.952;2023-08-08T00:33:31;1.88;;;1.25;;
37151;SDS011;23046;50.112;8.952;2023-08-08T00:33:43;2.65;;;1.30;;
37151;SDS011;23046;50.112;8.952;2023-08-08T00:33:53;3.00;;;1.30;;
37151;SDS011;23046;50.112;8.952;2023-08-08T00:34:03;2.30;;;1.30;;
37151;SDS011;23046;50.112;8.952;2023-08-08T00:34:13;1.45;;;1.30;;
37151;SDS011;23046;50.112;8.952;2023-08-08T00:34:24;1.40;;;1.30;;
37151;SDS011;23046;50.112;8.952;2023-08-08T00:34:34;1.17;;;1.07;;
37151;SDS011;23046;50.112;8.952;2023-08-08T00:34:44;1.67;;;1.10;;
37151;SDS011;23046;50.112;8.952;2023-08-08T00:34:54;2.50;;;1.10;;
37151;SDS011;23046;50.112;8.952;2023-08-08T00:35:05;2.93;;;1.23;;
37151;SDS011;23046;50.112;8.952;2023-08-08T00:35:16;2.75;;;1.15;;
37151;SDS011;23046;50.112;8.952;2023-08-08T00:35:26;2.60;;;1.30;;
37151;SDS011;23046;50.112;8.952;2023-08-08T00:35:36;2.22;;;1.33;;
37151;SDS011;23046;50.112;8.952;2023-08-08T00:35:47;1.83;;;1.37;;
37151;SDS011;23046;50.112;8.952;2023-08-08T00:35:57;1.60;;;1.13;;
37151;SDS011;23046;50.112;8.952;2023-08-08T00:36:08;1.70;;;1.03;;
37151;SDS011;23046;50.112;8.952;2023-08-08T00:36:18;2.77;;;1.10;;
37151;SDS011;23046;50.112;8.952;2023-08-08T00:36:28;2.80;;;1.20;;
37151;SDS011;23046;50.112;8.952;2023-08-08T00:36:39;2.03;;;1.30;;
37151;SDS011;23046;50.112;8.952;2023-08-08T00:36:49;1.30;;;1.20;;
37151;SDS011;23046;50.112;8.952;2023-08-08T00:36:59;1.30;;;1.20;;
37151;SDS011;23046;50.112;8.952;2023-08-08T00:37:09;1.40;;;1.10;;
37151;SDS011;23046;50.112;8.952;2023-08-08T00:37:20;1.27;;;1.10;;
37151;SDS011;23046;50.112;8.952;2023-08-08T00:37:30;1.20;;;1.03;;
37151;SDS011;23046;50.112;8.952;2023-08-08T00:37:41;1.20;;;1.10;;
37151;SDS011;23046;50.112;8.952;2023-08-08T00:37:52;1.90;;;1.15;;
37151;SDS011;23046;50.112;8.952;2023-08-08T00:38:02;2.23;;;1.23;;
37151;SDS011;23046;50.112;8.952;2023-08-08T00:38:12;2.10;;;1.20;;
37151;SDS011;23046;50.112;8.952;2023-08-08T00:38:23;1.30;;;1.20;;
37151;SDS011;23046;50.112;8.952;2023-08-08T00:38:34;1.30;;;1.20;;
37151;SDS011;23046;50.112;8.952;2023-08-08T00:38:44;1.97;;;1.13;;
37151;SDS011;23046;50.112;8.952;2023-08-08T00:38:54;2.30;;;1.17;;
37151;SDS011;23046;50.112;8.952;2023-08-08T00:39:05;2.40;;;1.20;;
37151;SDS011;23046;50.112;8.952;2023-08-08T00:39:15;1.40;;;1.30;;
37151;SDS011;23046;50.112;8.952;2023-08-08T00:39:25;1.40;;;1.30;;
37151;SDS011;23046;50.112;8.952;2023-08-08T00:39:35;1.50;;;1.40;;
37151;SDS011;23046;50.112;8.952;2023-08-08T00:39:46;1.50;;;1.40;;
37151;SDS011;23046;50.112;8.952;2023-08-08T00:39:56;1.50;;;1.33;;
37151;SDS011;23046;50.112;8.952;2023-08-08T00:40:06;1.47;;;1.37;;
37151;SDS011;23046;50.112;8.952;2023-08-08T00:40:17;1.42;;;1.20;;
37151;SDS011;23046;50.112;8.952;2023-08-08T00:40:27;1.30;;;1.20;;
37151;SDS011;23046;50.112;8.952;2023-08-08T00:40:37;1.37;;;1.10;;
37151;SDS011;23046;50.112;8.952;2023-08-08T00:40:49;1.50;;;1.20;;
37151;SDS011;23046;50.112;8.952;2023-08-08T00:40:59;1.57;;;1.20;;
37151;SDS011;23046;50.112;8.952;2023-08-08T00:41:09;1.27;;;1.17;;
37151;SDS011;23046;50.112;8.952;2023-08-08T00:41:19;1.43;;;1.17;;
37151;SDS011;23046;50.112;8.952;2023-08-08T00:41:30;1.40;;;1.20;;
37151;SDS011;23046;50.112;8.952;2023-08-08T00:41:40;1.80;;;1.40;;
37151;SDS011;23046;50.112;8.952;2023-08-08T00:41:50;1.50;;;1.40;;
37151;SDS011;23046;50.112;8.952;2023-08-08T00:42:00;1.50;;;1.33;;
37151;SDS011;23046;50.112;8.952;2023-08-08T00:42:12;1.30;;;1.20;;
37151;SDS011;23046;50.112;8.952;2023-08-08T00:42:22;1.58;;;1.30;;
37151;SDS011;23046;50.112;8.952;2023-08-08T00:42:32;1.60;;;1.33;;
37151;SDS011;23046;50.112;8.952;2023-08-08T00:42:43;1.77;;;1.40;;
37151;SDS011;23046;50.112;8.952;2023-08-08T00:42:53;1.37;;;1.27;;
37151;SDS011;23046;50.112;8.952;2023-08-08T00:43:04;1.30;;;1.20;;
37151;SDS011;23046;50.112;8.952;2023-08-08T00:43:15;1.30;;;1.20;;
37151;SDS011;23046;50.112;8.952;2023-08-08T00:43:25;1.30;;;1.20;;
37151;SDS011;23046;50.112;8.952;2023-08-08T00:43:35;1.40;;;1.10;;
37151;SDS011;23046;50.112;8.952;2023-08-08T00:43:45;1.67;;;1.10;;
37151;SDS011;23046;50.112;8.952;2023-08-08T00:43:56;1.47;;;1.10;;
37151;SDS011;23046;50.112;8.952;2023-08-08T00:44:07;1.67;;;1.20;;
37151;SDS011;23046;50.112;8.952;2023-08-08T00:44:17;1.83;;;1.20;;
37151;SDS011;23046;50.112;8.952;2023-08-08T00:44:27;1.93;;;1.23;;
37151;SDS011;23046;50.112;8.952;2023-08-08T00:44:37;1.53;;;1.20;;
37151;SDS011;23046;50.112;8.952;2023-08-08T00:44:48;1.30;;;1.20;;
37151;SDS011;23046;50.112;8.952;2023-08-08T00:44:58;1.30;;;1.20;;
37151;SDS011;23046;50.112;8.952;2023-08-08T00:45:13;1.40;;;1.30;;
37151;SDS011;23046;50.112;8.952;2023-08-08T00:45:23;1.87;;;1.40;;
37151;SDS011;23046;50.112;8.952;2023-08-08T00:45:34;2.00;;;1.35;;
37151;SDS011;23046;50.112;8.952;2023-08-08T00:45:44;2.13;;;1.33;;
37151;SDS011;23046;50.112;8.952;2023-08-08T00:45:55;1.70;;;1.30;;
37151;SDS011;23046;50.112;8.952;2023-08-08T00:46:06;1.92;;;1.33;;
37151;SDS011;23046;50.112;8.952;2023-08-08T00:46:18;2.43;;;1.33;;
37151;SDS011;23046;50.112;8.952;2023-08-08T00:46:30;2.00;;;1.33;;
37151;SDS011;23046;50.112;8.952;2023-08-08T00:46:42;1.85;;;1.33;;
37151;SDS011;23046;50.112;8.952;2023-08-08T00:46:52;1.37;;;1.27;;
37151;SDS011;23046;50.112;8.952;2023-08-08T00:47:03;1.30;;;1.20;;
37151;SDS011;23046;50.112;8.952;2023-08-08T00:47:13;1.08;;;1.05;;
37151;SDS011;23046;50.112;8.952;2023-08-08T00:47:23;1.20;;;1.10;;
37151;SDS011;23046;50.112;8.952;2023-08-08T00:47:34;1.10;;;1.00;;
37151;SDS011;23046;50.112;8.952;2023-08-08T00:47:45;2.47;;;1.17;;
37151;SDS011;23046;50.112;8.952;2023-08-08T00:47:57;2.38;;;1.13;;
37151;SDS011;23046;50.112;8.952;2023-08-08T00:48:07;2.08;;;1.15;;
37151;SDS011;23046;50.112;8.952;2023-08-08T00:48:17;1.27;;;1.17;;
37151;SDS011;23046;50.112;8.952;2023-08-08T00:48:31;1.27;;;1.17;;
37151;SDS011;23046;50.112;8.952;2023-08-08T00:48:42;1.40;;;1.30;;
37151;SDS011;23046;50.112;8.952;2023-08-08T00:48:53;1.30;;;1.20;;
37151;SDS011;23046;50.112;8.952;2023-08-08T00:49:04;1.08;;;1.08;;
37151;SDS011;23046;50.112;8.952;2023-08-08T00:49:15;1.10;;;1.10;;
37151;SDS011;23046;50.112;8.952;2023-08-08T00:49:25;1.37;;;1.27;;
37151;SDS011;23046;50.112;8.952;2023-08-08T00:49:35;1.42;;;1.33;;
37151;SDS011;23046;50.112;8.952;2023-08-08T00:49:46;1.40;;;1.30;;
37151;SDS011;23046;50.112;8.952;2023-08-08T00:49:58;1.30;;;1.20;;
37151;SDS011;23046;50.112;8.952;2023-08-08T00:50:09;1.10;;;1.00;;
37151;SDS011;23046;50.112;8.952;2023-08-08T00:50:20;1.15;;;1.10;;
37151;SDS011;23046;50.112;8.952;2023-08-08T00:50:30;1.30;;;1.10;;
37151;SDS011;23046;50.112;8.952;2023-08-08T00:50:42;2.47;;;1.20;;
37151;SDS011;23046;50.112;8.952;2023-08-08T00:50:52;2.35;;;1.20;;
37151;SDS011;23046;50.112;8.952;2023-08-08T00:51:02;2.80;;;1.40;;
37151;SDS011;23046;50.112;8.952;2023-08-08T00:51:13;1.60;;;1.30;;
37151;SDS011;23046;50.112;8.952;2023-08-08T00:51:23;1.45;;;1.20;;
37151;SDS011;23046;50.112;8.952;2023-08-08T00:51:34;1.30;;;1.20;;
37151;SDS011;23046;50.112;8.952;2023-08-08T00:51:44;1.30;;;1.20;;
37151;SDS011;23046;50.112;8.952;2023-08-08T00:51:55;1.20;;;1.10;;
37151;SDS011;23046;50.112;8.952;2023-08-08T00:52:05;1.23;;;1.13;;
37151;SDS011;23046;50.112;8.952;2023-08-08T00:52:16;1.30;;;1.20;;
37151;SDS011;23046;50.112;8.952;2023-08-08T00:52:27;1.40;;;1.20;;
37151;SDS011;23046;50.112;8.952;2023-08-08T00:52:38;1.30;;;1.20;;
37151;SDS011;23046;50.112;8.952;2023-08-08T00:52:50;1.30;;;1.20;;
37151;SDS011;23046;50.112;8.952;2023-08-08T00:53:00;1.40;;;1.30;;
37151;SDS011;23046;50.112;8.952;2023-08-08T00:53:11;1.73;;;1.30;;
37151;SDS011;23046;50.112;8.952;2023-08-08T00:53:21;1.73;;;1.30;;
37151;SDS011;23046;50.112;8.952;2023-08-08T00:53:33;1.60;;;1.20;;
37151;SDS011;23046;50.112;8.952;2023-08-08T00:53:44;1.30;;;1.20;;
37151;SDS011;23046;50.112;8.952;2023-08-08T00:53:54;1.30;;;1.20;;
37151;SDS011;23046;50.112;8.952;2023-08-08T00:54:06;2.45;;;1.38;;
37151;SDS011;23046;50.112;8.952;2023-08-08T00:54:16;2.57;;;1.30;;
37151;SDS011;23046;50.112;8.952;2023-08-08T00:54:26;2.22;;;1.23;;
37151;SDS011;23046;50.112;8.952;2023-08-08T00:54:37;1.27;;;1.17;;
37151;SDS011;23046;50.112;8.952;2023-08-08T00:54:47;1.30;;;1.20;;
37151;SDS011;23046;50.112;8.952;2023-08-08T00:54:57;1.40;;;1.30;;
37151;SDS011;23046;50.112;8.952;2023-08-08T00:55:09;1.35;;;1.25;;
37151;SDS011;23046;50.112;8.952;2023-08-08T00:55:19;1.30;;;1.20;;
37151;SDS011;23046;50.112;8.952;2023-08-08T00:55:29;1.53;;;1.27;;
37151;SDS011;23046;50.112;8.952;2023-08-08T00:55:40;1.65;;;1.33;;
37151;SDS011;23046;50.112;8.952;2023-08-08T00:55:50;1.60;;;1.33;;
37151;SDS011;23046;50.112;8.952;2023-08-08T00:56:01;1.27;;;1.23;;
37151;SDS011;23046;50.112;8.952;2023-08-08T00:56:13;1.80;;;1.37;;
37151;SDS011;23046;50.112;8.952;2023-08-08T00:56:23;2.15;;;1.35;;
37151;SDS011;23046;50.112;8.952;2023-08-08T00:56:34;2.00;;;1.17;;
37151;SDS011;23046;50.112;8.952;2023-08-08T00:56:45;1.15;;;1.10;;
37151;SDS011;23046;50.112;8.952;2023-08-08T00:56:56;1.05;;;1.02;;
37151;SDS011;23046;50.112;8.952;2023-08-08T00:57:06;1.27;;;1.17;;
37151;SDS011;23046;50.112;8.952;2023-08-08T00:57:16;1.40;;;1.30;;
37151;SDS011;23046;50.112;8.952;2023-08-08T00:57:27;1.43;;;1.27;;
37151;SDS011;23046;50.112;8.952;2023-08-08T00:57:37;1.50;;;1.20;;
37151;SDS011;23046;50.112;8.952;2023-08-08T00:57:48;1.58;;;1.20;;
37151;SDS011;23046;50.112;8.952;2023-08-08T00:57:58;1.60;;;1.20;;
37151;SDS011;23046;50.112;8.952;2023-08-08T00:58:09;3.47;;;1.30;;
37151;SDS011;23046;50.112;8.952;2023-08-08T00:58:20;3.35;;;1.35;;
37151;SDS011;23046;50.112;8.952;2023-08-08T00:58:30;3.03;;;1.37;;
37151;SDS011;23046;50.112;8.952;2023-08-08T00:58:41;1.90;;;1.40;;
37151;SDS011;23046;50.112;8.952;2023-08-08T00:58:52;1.73;;;1.35;;
37151;SDS011;23046;50.112;8.952;2023-08-08T00:59:02;1.57;;;1.40;;
37151;SDS011;23046;50.112;8.952;2023-08-08T00:59:13;1.60;;;1.50;;
37151;SDS011;23046;50.112;8.952;2023-08-08T00:59:23;1.55;;;1.40;;
37151;SDS011;23046;50.112;8.952;2023-08-08T00:59:34;1.40;;;1.30;;
37151;SDS011;23046;50.112;8.952;2023-08-08T00:59:44;1.20;;;1.10;;
37151;SDS011;23046;50.112;8.952;2023-08-08T00:59:54;3.10;;;1.30;;
37151;SDS011;23046;50.112;8.952;2023-08-08T01:00:05;3.00;;;1.30;;
37151;SDS011;23046;50.112;8.952;2023-08-08T01:00:16;3.00;;;1.33;;
37151;SDS011;23046;50.112;8.952;2023-08-08T01:00:27;1.30;;;1.20;;
37151;SDS011;23046;50.112;8.952;2023-08-08T01:00:37;1.23;;;1.13;;
37151;SDS011;23046;50.112;8.952;2023-08-08T01:00:48;1.38;;;1.27;;
37151;SDS011;23046;50.112;8.952;2023-08-08T01:00:59;1.48;;;1.38;;
37151;SDS011;23046;50.112;8.952;2023-08-08T01:01:10;1.40;;;1.30;;
37151;SDS011;23046;50.112;8.952;2023-08-08T01:01:20;1.40;;;1.30;;
37151;SDS011;23046;50.112;8.952;2023-08-08T01:01:30;1.33;;;1.23;;
37151;SDS011;23046;50.112;8.952;2023-08-08T01:01:40;1.40;;;1.30;;
37151;SDS011;23046;50.112;8.952;2023-08-08T01:01:51;1.40;;;1.30;;
37151;SDS011;23046;50.112;8.952;2023-08-08T01:02:01;1.40;;;1.30;;
37151;SDS011;23046;50.112;8.952;2023-08-08T01:02:11;1.57;;;1.30;;
37151;SDS011;23046;50.112;8.952;2023-08-08T01:02:22;1.60;;;1.30;;
37151;SDS011;23046;50.112;8.952;2023-08-08T01:02:32;4.13;;;1.30;;
37151;SDS011;23046;50.112;8.952;2023-08-08T01:02:42;4.10;;;1.20;;
37151;SDS011;23046;50.112;8.952;2023-08-08T01:02:53;4.03;;;1.20;;
37151;SDS011;23046;50.112;8.952;2023-08-08T01:03:03;1.53;;;1.30;;
37151;SDS011;23046;50.112;8.952;2023-08-08T01:03:14;1.50;;;1.40;;